Time;durP1;ratioP1;P1;durP2;ratioP2;P2;SDS_P1;SDS_P2;PMS_P1;PMS_P2;Temp;Humidity;BMP_temperature;BMP_pressure;BME280_temperature;BME280_humidity;BME280_pressure;Samples;Min_cycle;Max_cycle;Signal;HPM_P1;HPM_P2
2023/06/14 00:00:17;;;;;;;4.18;2.80;;;14.90;51.70;;;;;;4958284;28;20094;-63
2023/06/14 00:02:43;;;;;;;3.55;2.67;;;14.90;51.60;;;;;;4957766;28;20101;-65
2023/06/14 00:05:09;;;;;;;4.10;3.35;;;14.90;51.60;;;;;;4959289;28;20541;-64
2023/06/14 00:07:36;;;;;;;3.05;2.63;;;15.00;51.60;;;;;;4957937;28;20549;-65
2023/06/14 00:10:04;;;;;;;4.30;3.10;;;15.00;51.60;;;;;;4958112;28;20039;-65
2023/06/14 00:12:30;;;;;;;4.95;2.70;;;15.00;51.80;;;;;;4956427;28;20049;-64
2023/06/14 00:14:56;;;;;;;3.53;3.22;;;15.00;52.20;;;;;;4958629;28;20035;-65
2023/06/14 00:17:22;;;;;;;3.88;3.28;;;15.00;51.70;;;;;;4959314;28;20450;-65
2023/06/14 00:19:48;;;;;;;3.67;3.20;;;15.00;51.80;;;;;;4958363;28;20179;-65
2023/06/14 00:22:13;;;;;;;4.53;2.90;;;14.90;51.80;;;;;;4955949;28;20325;-63
2023/06/14 00:24:39;;;;;;;4.97;2.95;;;14.90;51.70;;;;;;4955394;28;20525;-64
2023/06/14 00:27:05;;;;;;;4.35;3.10;;;14.90;51.80;;;;;;4955677;28;20094;-65
2023/06/14 00:29:31;;;;;;;3.28;2.97;;;14.90;52.00;;;;;;4955199;28;20042;-65
2023/06/14 00:31:56;;;;;;;3.40;3.10;;;14.80;52.10;;;;;;4956737;28;20070;-65
2023/06/14 00:34:22;;;;;;;4.18;2.95;;;14.70;52.10;;;;;;4956881;28;20035;-65
2023/06/14 00:36:47;;;;;;;4.85;3.33;;;14.70;52.20;;;;;;4955832;28;20049;-65
2023/06/14 00:39:13;;;;;;;3.08;2.78;;;14.50;52.40;;;;;;4955323;28;20062;-65
2023/06/14 00:41:39;;;;;;;3.35;3.00;;;14.40;52.30;;;;;;4956752;28;20478;-64
2023/06/14 00:44:05;;;;;;;3.72;3.10;;;14.40;52.50;;;;;;4955450;28;20041;-64
2023/06/14 00:46:31;;;;;;;3.40;2.83;;;14.30;52.70;;;;;;4954536;28;20032;-65
2023/06/14 00:48:58;;;;;;;3.30;3.00;;;14.30;52.90;;;;;;4955644;28;20038;-64
2023/06/14 00:51:24;;;;;;;4.50;3.13;;;14.20;53.00;;;;;;4955656;28;20035;-65
2023/06/14 00:53:51;;;;;;;3.45;3.10;;;14.20;53.10;;;;;;4953961;28;20037;-65
2023/06/14 00:56:20;;;;;;;4.07;2.78;;;14.10;53.30;;;;;;4954350;28;20554;-65
2023/06/14 00:58:46;;;;;;;4.93;3.15;;;14.10;54.10;;;;;;4954405;28;20031;-64
2023/06/14 01:01:12;;;;;;;2.92;2.60;;;14.00;53.60;;;;;;4956482;28;20026;-65
2023/06/14 01:03:39;;;;;;;5.75;3.13;;;13.90;53.70;;;;;;4955995;28;20046;-65
2023/06/14 01:06:29;;;;;;;3.17;2.88;;;13.90;53.90;;;;;;4956343;28;20038;-64
2023/06/14 01:09:08;;;;;;;3.80;3.05;;;13.90;54.40;;;;;;4959048;28;20047;-65
2023/06/14 01:11:45;;;;;;;3.25;2.95;;;13.90;54.40;;;;;;4956904;28;20032;-64
2023/06/14 01:14:13;;;;;;;4.70;3.40;;;13.80;54.20;;;;;;4958101;28;20031;-64
2023/06/14 01:16:39;;;;;;;4.10;3.20;;;13.80;54.10;;;;;;4956435;28;20066;-64
2023/06/14 01:19:06;;;;;;;7.43;3.40;;;13.80;54.20;;;;;;4954695;28;20039;-65
2023/06/14 01:21:41;;;;;;;3.63;2.92;;;13.70;54.40;;;;;;4956597;28;20039;-65
2023/06/14 01:24:08;;;;;;;3.50;3.17;;;13.70;54.60;;;;;;4955192;28;20038;-64
2023/06/14 01:26:37;;;;;;;5.28;3.42;;;13.70;54.50;;;;;;4960091;28;20035;-64
2023/06/14 01:29:03;;;;;;;3.78;3.15;;;13.60;54.60;;;;;;4958226;28;20040;-64
2023/06/14 01:31:39;;;;;;;4.32;3.20;;;13.60;54.60;;;;;;4958323;28;20043;-65
2023/06/14 01:34:05;;;;;;;5.68;3.25;;;13.50;54.80;;;;;;4958138;28;20130;-64
2023/06/14 01:36:31;;;;;;;5.10;3.30;;;13.50;54.80;;;;;;4958371;28;20118;-65
2023/06/14 01:38:58;;;;;;;5.13;3.47;;;13.40;55.00;;;;;;4959450;28;20065;-65
2023/06/14 01:41:25;;;;;;;3.72;3.10;;;13.40;55.10;;;;;;4958765;28;20101;-64
2023/06/14 01:43:52;;;;;;;6.68;3.85;;;13.40;55.20;;;;;;4958500;28;20035;-65
2023/06/14 01:46:18;;;;;;;5.35;3.55;;;13.20;55.30;;;;;;4958966;28;20035;-65
2023/06/14 01:48:44;;;;;;;7.50;3.53;;;13.20;55.50;;;;;;4958016;28;20474;-62
2023/06/14 01:51:09;;;;;;;3.72;3.13;;;13.10;55.60;;;;;;4958909;28;20562;-64
2023/06/14 01:53:36;;;;;;;4.75;3.35;;;13.10;55.80;;;;;;4956781;28;20106;-65
2023/06/14 01:56:01;;;;;;;4.25;3.40;;;13.00;55.90;;;;;;4957699;28;20023;-65
2023/06/14 01:58:27;;;;;;;5.65;3.50;;;13.00;56.00;;;;;;4958038;28;20281;-65
2023/06/14 02:00:55;;;;;;;5.38;3.55;;;12.90;56.00;;;;;;4958222;28;20081;-65
2023/06/14 02:03:21;;;;;;;8.65;3.72;;;12.90;56.10;;;;;;4958466;28;20546;-64
2023/06/14 02:05:47;;;;;;;6.93;3.65;;;12.90;56.10;;;;;;4958317;28;20046;-65
2023/06/14 02:08:12;;;;;;;3.65;3.35;;;12.80;56.20;;;;;;4959834;28;20517;-64
2023/06/14 02:10:38;;;;;;;4.07;3.60;;;12.80;56.40;;;;;;4957913;28;20031;-64
2023/06/14 02:13:03;;;;;;;7.05;3.40;;;12.80;56.30;;;;;;4957149;28;20066;-64
2023/06/14 02:15:33;;;;;;;4.75;3.35;;;12.80;56.30;;;;;;4958789;28;20043;-65
2023/06/14 02:18:00;;;;;;;5.63;3.72;;;12.70;56.50;;;;;;4957716;28;20082;-64
2023/06/14 02:20:26;;;;;;;5.75;3.55;;;12.70;56.60;;;;;;4957267;28;20475;-63
2023/06/14 02:22:51;;;;;;;3.85;3.40;;;12.60;56.70;;;;;;4957889;28;20502;-65
2023/06/14 02:25:17;;;;;;;6.63;3.80;;;12.60;56.90;;;;;;4957420;28;20046;-65
2023/06/14 02:27:42;;;;;;;3.53;3.22;;;12.50;57.00;;;;;;4957362;28;20047;-64
2023/06/14 02:30:08;;;;;;;4.38;3.30;;;12.60;57.30;;;;;;4958286;28;20050;-64
2023/06/14 02:32:35;;;;;;;5.10;3.53;;;12.50;57.50;;;;;;4957592;28;20120;-65
2023/06/14 02:35:01;;;;;;;4.93;3.67;;;12.50;57.40;;;;;;4957930;28;20418;-66
2023/06/14 02:37:27;;;;;;;5.50;3.60;;;12.50;57.60;;;;;;4957408;28;20042;-65
2023/06/14 02:39:52;;;;;;;4.07;3.47;;;12.40;57.70;;;;;;4957575;28;20039;-65
2023/06/14 02:42:18;;;;;;;4.72;3.90;;;12.40;57.80;;;;;;4955959;28;20035;-65
2023/06/14 02:44:45;;;;;;;7.18;3.63;;;12.40;57.90;;;;;;4956206;28;20113;-65
2023/06/14 02:47:10;;;;;;;4.00;3.50;;;12.30;57.90;;;;;;4956131;28;20321;-64
2023/06/14 02:49:36;;;;;;;4.55;3.90;;;12.30;57.80;;;;;;4957559;28;20039;-65
2023/06/14 02:52:02;;;;;;;4.85;3.90;;;12.20;57.90;;;;;;4957343;28;20549;-65
2023/06/14 02:54:28;;;;;;;4.45;4.05;;;12.20;58.00;;;;;;4958829;28;20039;-65
2023/06/14 02:56:53;;;;;;;4.32;3.60;;;12.20;58.00;;;;;;4956267;28;20039;-65
2023/06/14 02:59:21;;;;;;;4.47;3.50;;;12.30;58.10;;;;;;4957426;28;20335;-65
2023/06/14 03:01:46;;;;;;;4.45;3.92;;;12.30;58.10;;;;;;4958609;28;20074;-65
2023/06/14 03:04:12;;;;;;;4.50;3.97;;;12.30;58.00;;;;;;4955672;28;20170;-65
2023/06/14 03:06:39;;;;;;;4.20;3.80;;;12.30;58.00;;;;;;4957239;28;20384;-65
2023/06/14 03:09:05;;;;;;;6.40;3.50;;;12.30;58.00;;;;;;4959386;28;20034;-65
2023/06/14 03:11:31;;;;;;;6.22;3.75;;;12.30;58.10;;;;;;4955264;28;20081;-65
2023/06/14 03:13:57;;;;;;;5.40;3.65;;;12.20;58.20;;;;;;4957622;28;20039;-64
2023/06/14 03:16:24;;;;;;;4.18;3.78;;;12.20;58.60;;;;;;4956444;28;20546;-65
2023/06/14 03:18:51;;;;;;;6.45;4.00;;;12.10;58.70;;;;;;4956490;28;20093;-65
2023/06/14 03:21:17;;;;;;;4.15;3.75;;;12.10;59.00;;;;;;4955679;28;20042;-65
2023/06/14 03:23:44;;;;;;;5.93;4.22;;;12.00;58.80;;;;;;4958513;28;20031;-66
2023/06/14 03:26:12;;;;;;;9.05;3.92;;;12.00;59.00;;;;;;4957420;28;20295;-65
2023/06/14 03:28:38;;;;;;;4.53;3.83;;;12.00;59.50;;;;;;4943063;28;20034;-65
2023/06/14 03:31:03;;;;;;;5.20;3.90;;;11.90;59.40;;;;;;4957142;28;20576;-64
2023/06/14 03:33:29;;;;;;;5.82;4.15;;;11.90;59.50;;;;;;4957469;28;20051;-65
2023/06/14 03:35:56;;;;;;;6.85;4.00;;;11.90;59.60;;;;;;4957616;28;20514;-65
2023/06/14 03:38:21;;;;;;;4.85;4.00;;;11.90;59.80;;;;;;4956944;28;20403;-64
2023/06/14 03:40:47;;;;;;;4.85;3.72;;;11.90;59.90;;;;;;4956855;28;20109;-65
2023/06/14 03:43:13;;;;;;;3.97;3.58;;;11.90;59.90;;;;;;4956190;28;20043;-65
2023/06/14 03:45:38;;;;;;;5.53;4.00;;;11.90;59.80;;;;;;4956114;28;20129;-65
2023/06/14 03:48:06;;;;;;;5.28;3.80;;;12.00;59.70;;;;;;4956548;28;20725;-65
2023/06/14 03:50:32;;;;;;;5.43;4.05;;;12.00;59.70;;;;;;4954397;28;20037;-64
2023/06/14 03:52:58;;;;;;;4.82;4.13;;;11.90;59.90;;;;;;4956603;28;20027;-65
2023/06/14 03:55:25;;;;;;;5.55;3.42;;;12.00;60.00;;;;;;4954700;28;20035;-65
2023/06/14 03:57:51;;;;;;;5.03;3.97;;;11.90;59.90;;;;;;4957693;28;20050;-65
2023/06/14 04:00:18;;;;;;;4.97;4.10;;;11.90;59.90;;;;;;4956050;28;20058;-65
2023/06/14 04:02:44;;;;;;;7.38;4.00;;;11.90;60.10;;;;;;4956960;28;20038;-65
2023/06/14 04:05:09;;;;;;;4.65;3.75;;;11.80;59.90;;;;;;4955028;28;20503;-63
2023/06/14 04:07:44;;;;;;;3.97;3.67;;;11.80;60.00;;;;;;4955503;28;20047;-65
2023/06/14 04:10:14;;;;;;;4.63;3.92;;;11.80;60.10;;;;;;4957838;28;20043;-65
2023/06/14 04:12:40;;;;;;;4.47;4.03;;;11.80;60.20;;;;;;4950905;28;20054;-64
2023/06/14 04:15:07;;;;;;;5.53;4.05;;;11.80;60.10;;;;;;4953393;28;20495;-65
2023/06/14 04:17:33;;;;;;;5.30;4.03;;;11.80;60.20;;;;;;4956722;28;20039;-65
2023/06/14 04:20:00;;;;;;;7.00;3.90;;;11.80;60.50;;;;;;4957813;28;20039;-65
2023/06/14 04:22:30;;;;;;;6.30;4.10;;;11.80;60.50;;;;;;4957811;28;20035;-63
2023/06/14 04:24:56;;;;;;;9.02;4.30;;;11.80;60.60;;;;;;4957353;28;20038;-65
2023/06/14 04:27:25;;;;;;;4.20;3.78;;;11.80;60.60;;;;;;4957680;28;20050;-65
2023/06/14 04:29:53;;;;;;;5.70;3.78;;;11.80;60.80;;;;;;4957227;28;20391;-63
2023/06/14 04:32:18;;;;;;;8.00;4.30;;;11.80;60.80;;;;;;4958239;28;20027;-65
2023/06/14 04:34:44;;;;;;;6.32;3.90;;;11.80;60.90;;;;;;4957051;28;20039;-65
2023/06/14 04:37:11;;;;;;;6.03;3.88;;;11.90;61.10;;;;;;4958581;28;20537;-65
2023/06/14 04:39:37;;;;;;;6.55;4.10;;;11.90;61.30;;;;;;4957627;28;20057;-64
2023/06/14 04:42:03;;;;;;;7.22;4.70;;;11.90;61.50;;;;;;4958151;28;20501;-64
2023/06/14 04:44:32;;;;;;;5.82;4.32;;;12.00;61.70;;;;;;4956450;28;20241;-65
2023/06/14 04:46:58;;;;;;;9.05;4.20;;;12.00;61.80;;;;;;4957302;28;20514;-65
2023/06/14 04:49:24;;;;;;;10.55;4.53;;;12.00;61.90;;;;;;4957413;28;20070;-64
2023/06/14 04:51:57;;;;;;;8.82;4.60;;;12.10;62.00;;;;;;4957451;28;20414;-65
2023/06/14 04:54:25;;;;;;;13.75;4.85;;;12.10;62.20;;;;;;4956430;28;20065;-64
2023/06/14 04:56:53;;;;;;;7.35;4.50;;;12.20;62.50;;;;;;4957288;28;20071;-65
2023/06/14 04:59:18;;;;;;;12.00;5.03;;;12.20;62.60;;;;;;4957763;28;20035;-65
2023/06/14 05:01:48;;;;;;;8.63;4.72;;;12.30;62.60;;;;;;4960632;28;20034;-64
2023/06/14 05:04:15;;;;;;;11.80;4.57;;;12.30;62.60;;;;;;4961164;28;20066;-64
2023/06/14 05:06:42;;;;;;;7.55;4.57;;;12.40;62.70;;;;;;4961175;28;20074;-65
2023/06/14 05:09:07;;;;;;;6.03;4.00;;;12.50;62.90;;;;;;4962516;28;20430;-64
2023/06/14 05:11:33;;;;;;;8.93;4.35;;;12.60;63.00;;;;;;4962732;28;20102;-64
2023/06/14 05:13:58;;;;;;;7.13;4.15;;;12.70;63.20;;;;;;4959955;28;20500;-64
2023/06/14 05:16:25;;;;;;;5.70;4.35;;;12.70;63.20;;;;;;4960498;28;20376;-66
2023/06/14 05:18:51;;;;;;;8.07;4.40;;;12.90;63.40;;;;;;4960935;28;20038;-65
2023/06/14 05:21:18;;;;;;;8.50;4.20;;;13.00;63.10;;;;;;4960992;28;20027;-65
2023/06/14 05:23:44;;;;;;;8.07;4.93;;;13.10;62.90;;;;;;4960933;28;20106;-65
2023/06/14 05:26:10;;;;;;;7.82;4.57;;;13.30;63.20;;;;;;4961763;28;20488;-64
2023/06/14 05:28:36;;;;;;;6.53;4.32;;;13.40;62.60;;;;;;4960902;28;20125;-65
2023/06/14 05:31:02;;;;;;;5.80;3.88;;;13.60;63.10;;;;;;4961296;28;20566;-64
2023/06/14 05:33:28;;;;;;;4.63;4.10;;;13.70;61.70;;;;;;4960760;28;20058;-64
2023/06/14 05:35:55;;;;;;;6.25;4.05;;;13.90;61.10;;;;;;4961419;28;20062;-65
2023/06/14 05:38:20;;;;;;;6.10;3.95;;;14.00;60.20;;;;;;4961047;28;20082;-65
2023/06/14 05:40:46;;;;;;;5.55;4.07;;;14.20;59.70;;;;;;4961290;28;20587;-65
2023/06/14 05:43:11;;;;;;;5.72;4.53;;;14.40;59.40;;;;;;4961244;28;20123;-65
2023/06/14 05:45:37;;;;;;;8.32;4.18;;;14.50;58.70;;;;;;4960274;28;20504;-65
2023/06/14 05:48:03;;;;;;;8.07;4.40;;;14.60;58.20;;;;;;4960034;28;20043;-64
2023/06/14 05:50:28;;;;;;;4.47;3.88;;;14.80;57.80;;;;;;4959638;28;20368;-65
2023/06/14 05:52:54;;;;;;;5.72;4.25;;;14.90;57.40;;;;;;4959798;28;20023;-65
2023/06/14 05:55:20;;;;;;;5.60;4.20;;;15.00;57.30;;;;;;4960242;28;20605;-65
2023/06/14 05:57:45;;;;;;;7.32;4.40;;;15.20;57.00;;;;;;4961690;28;20038;-64
2023/06/14 06:00:14;;;;;;;6.68;4.15;;;15.30;56.90;;;;;;4959804;28;20043;-65
2023/06/14 06:02:41;;;;;;;6.32;4.13;;;15.50;56.70;;;;;;4959776;28;20045;-65
2023/06/14 06:05:07;;;;;;;5.50;4.38;;;15.60;56.50;;;;;;4959384;28;20451;-65
2023/06/14 06:07:32;;;;;;;8.07;4.40;;;15.70;56.40;;;;;;4960231;28;20043;-65
2023/06/14 06:09:58;;;;;;;12.18;4.05;;;15.80;56.40;;;;;;4960322;28;20395;-65
2023/06/14 06:12:23;;;;;;;6.03;4.15;;;15.90;56.10;;;;;;4961490;28;20554;-65
2023/06/14 06:14:49;;;;;;;6.38;4.32;;;16.00;56.00;;;;;;4960870;28;20081;-65
2023/06/14 06:17:15;;;;;;;7.72;4.32;;;16.10;55.90;;;;;;4959045;28;20047;-65
2023/06/14 06:19:40;;;;;;;6.10;4.50;;;16.20;55.60;;;;;;4959666;28;20047;-65
2023/06/14 06:22:06;;;;;;;6.07;4.63;;;16.30;56.10;;;;;;4960800;28;20031;-64
2023/06/14 06:24:32;;;;;;;8.70;4.88;;;16.40;55.40;;;;;;4959896;28;20551;-63
2023/06/14 06:26:57;;;;;;;7.07;4.50;;;16.50;55.50;;;;;;4958779;28;20135;-64
2023/06/14 06:29:23;;;;;;;7.13;4.80;;;16.50;55.40;;;;;;4959753;28;20118;-64
2023/06/14 06:31:49;;;;;;;6.78;4.80;;;16.70;55.50;;;;;;4959541;28;20032;-65
2023/06/14 06:34:14;;;;;;;7.35;4.97;;;16.70;55.50;;;;;;4958725;28;20083;-63
2023/06/14 06:36:40;;;;;;;7.05;4.88;;;16.90;55.40;;;;;;4958422;28;20082;-63
2023/06/14 06:39:09;;;;;;;8.55;4.75;;;16.90;55.20;;;;;;4959455;28;20453;-64
2023/06/14 06:41:39;;;;;;;8.55;4.55;;;17.00;55.30;;;;;;4959838;28;20140;-65
2023/06/14 06:44:06;;;;;;;5.53;4.07;;;17.10;55.10;;;;;;4959254;28;20049;-64
2023/06/14 06:46:33;;;;;;;13.07;4.88;;;17.20;55.00;;;;;;4958124;28;20118;-64
2023/06/14 06:48:59;;;;;;;5.25;4.30;;;17.30;55.00;;;;;;4959634;28;20066;-65
2023/06/14 06:51:24;;;;;;;9.88;4.55;;;17.40;54.80;;;;;;4958709;28;20065;-64
2023/06/14 06:53:56;;;;;;;7.05;4.28;;;17.40;54.40;;;;;;4958560;28;20505;-63
2023/06/14 06:56:23;;;;;;;7.80;4.10;;;17.60;54.30;;;;;;4959494;28;20052;-65
2023/06/14 06:58:49;;;;;;;8.18;4.20;;;17.70;53.90;;;;;;4959268;28;20688;-65
2023/06/14 07:01:15;;;;;;;8.30;4.25;;;17.80;53.70;;;;;;4958084;28;20043;-64
2023/06/14 07:03:41;;;;;;;5.03;3.88;;;17.80;53.40;;;;;;4958789;28;20261;-65
2023/06/14 07:06:07;;;;;;;7.45;3.85;;;17.90;53.30;;;;;;4960263;28;20053;-65
2023/06/14 07:08:32;;;;;;;8.80;3.80;;;18.00;53.30;;;;;;4957852;28;20034;-64
2023/06/14 07:10:58;;;;;;;4.55;3.40;;;18.10;53.00;;;;;;4961281;28;20058;-65
2023/06/14 07:13:24;;;;;;;5.10;3.90;;;18.20;52.80;;;;;;4959477;28;20031;-65
2023/06/14 07:15:49;;;;;;;8.63;3.53;;;18.30;52.40;;;;;;4959096;28;20114;-64
2023/06/14 07:18:15;;;;;;;8.23;3.95;;;18.40;52.60;;;;;;4959692;28;20503;-64
2023/06/14 07:20:42;;;;;;;5.13;3.50;;;18.50;52.10;;;;;;4958008;28;20042;-64
2023/06/14 07:23:08;;;;;;;5.85;3.88;;;18.60;52.10;;;;;;4959286;28;20039;-64
2023/06/14 07:25:33;;;;;;;4.68;3.60;;;18.70;51.90;;;;;;4959865;28;20057;-65
2023/06/14 07:27:59;;;;;;;5.35;3.72;;;18.80;51.70;;;;;;4959600;28;20424;-64
2023/06/14 07:30:26;;;;;;;4.57;3.25;;;18.90;51.60;;;;;;4958661;28;20082;-65
2023/06/14 07:32:53;;;;;;;5.88;4.28;;;19.00;51.30;;;;;;4958794;28;20582;-64
2023/06/14 07:35:18;;;;;;;5.35;3.38;;;19.10;50.60;;;;;;4957599;28;20054;-64
2023/06/14 07:37:46;;;;;;;3.40;3.05;;;19.20;50.80;;;;;;4958638;28;20502;-64
2023/06/14 07:40:13;;;;;;;5.35;3.53;;;19.30;50.60;;;;;;4958535;28;20049;-65
2023/06/14 07:42:38;;;;;;;7.97;3.30;;;19.40;50.30;;;;;;4957767;28;20415;-65
2023/06/14 07:45:05;;;;;;;4.18;3.15;;;19.50;50.50;;;;;;4957421;28;20035;-64
2023/06/14 07:47:30;;;;;;;5.28;3.20;;;19.60;50.20;;;;;;4957926;28;20501;-62
2023/06/14 07:49:56;;;;;;;4.22;3.00;;;19.70;49.50;;;;;;4958488;28;20034;-64
2023/06/14 07:52:21;;;;;;;3.75;3.30;;;19.80;49.90;;;;;;4957818;28;20109;-64
2023/06/14 07:54:47;;;;;;;5.38;3.05;;;20.00;49.80;;;;;;4957795;28;20269;-64
2023/06/14 07:57:13;;;;;;;3.28;2.97;;;20.10;49.00;;;;;;4958121;28;20031;-63
2023/06/14 07:59:38;;;;;;;5.80;3.55;;;20.20;48.80;;;;;;4957912;28;20378;-64
2023/06/14 08:02:04;;;;;;;6.32;3.10;;;20.30;48.10;;;;;;4954220;28;20424;-64
2023/06/14 08:04:31;;;;;;;4.70;2.95;;;20.40;48.50;;;;;;4959399;28;20039;-64
2023/06/14 08:06:57;;;;;;;6.70;3.67;;;20.50;48.50;;;;;;4959577;28;20039;-63
2023/06/14 08:09:22;;;;;;;6.43;2.78;;;20.60;48.70;;;;;;4960477;28;20909;-64
2023/06/14 08:11:48;;;;;;;3.85;2.78;;;20.80;48.20;;;;;;4960315;28;20058;-65
2023/06/14 08:14:14;;;;;;;5.07;3.15;;;20.90;47.80;;;;;;4959384;28;20031;-64
2023/06/14 08:16:39;;;;;;;4.65;2.97;;;21.00;47.70;;;;;;4959478;28;20031;-64
2023/06/14 08:19:05;;;;;;;4.57;3.10;;;21.20;47.60;;;;;;4959886;28;20050;-64
2023/06/14 08:21:33;;;;;;;5.53;2.70;;;21.30;47.40;;;;;;4959606;28;20512;-63
2023/06/14 08:24:00;;;;;;;5.18;3.20;;;21.40;47.20;;;;;;4958853;28;20112;-62
2023/06/14 08:26:28;;;;;;;4.53;2.83;;;21.50;46.60;;;;;;4960037;28;20031;-64
2023/06/14 08:28:55;;;;;;;3.80;2.78;;;21.60;47.50;;;;;;4959462;28;20097;-64
2023/06/14 08:31:20;;;;;;;3.13;2.63;;;21.70;46.50;;;;;;4959070;28;20046;-64
2023/06/14 08:33:46;;;;;;;3.97;2.40;;;21.90;46.50;;;;;;4957184;28;20043;-64
2023/06/14 08:36:12;;;;;;;3.53;2.72;;;22.00;46.00;;;;;;4957289;28;20046;-65
2023/06/14 08:38:38;;;;;;;2.97;2.65;;;22.10;45.00;;;;;;4958503;28;20049;-65
2023/06/14 08:41:08;;;;;;;5.32;2.55;;;22.20;44.80;;;;;;4958480;28;20063;-64
2023/06/14 08:43:34;;;;;;;3.83;2.45;;;22.30;44.80;;;;;;4958420;28;20423;-65
2023/06/14 08:46:04;;;;;;;3.83;2.50;;;22.40;44.80;;;;;;4959393;28;20190;-64
2023/06/14 08:48:33;;;;;;;2.85;2.42;;;22.50;44.20;;;;;;4959254;28;20074;-65
2023/06/14 08:51:03;;;;;;;5.00;2.60;;;22.70;44.40;;;;;;4959324;28;20023;-63
2023/06/14 08:53:33;;;;;;;6.35;2.80;;;22.80;43.50;;;;;;4959149;28;20054;-64
2023/06/14 08:56:04;;;;;;;5.68;2.60;;;22.90;43.00;;;;;;4959417;28;20039;-65
2023/06/14 08:58:31;;;;;;;3.22;2.40;;;23.00;43.10;;;;;;4958114;28;20098;-65
2023/06/14 09:00:58;;;;;;;2.83;2.40;;;23.10;43.10;;;;;;4959646;28;20138;-64
2023/06/14 09:03:29;;;;;;;4.15;2.50;;;23.10;43.10;;;;;;4959665;28;20082;-64
2023/06/14 09:05:58;;;;;;;4.55;2.90;;;23.20;42.50;;;;;;4960503;28;20948;-64
2023/06/14 09:08:31;;;;;;;3.25;2.55;;;23.20;42.30;;;;;;4959662;28;20038;-63
2023/06/14 09:10:57;;;;;;;3.15;2.38;;;23.30;42.40;;;;;;4964123;28;20031;-64
2023/06/14 09:13:22;;;;;;;5.35;2.58;;;23.30;41.90;;;;;;4960521;28;20509;-64
2023/06/14 09:15:48;;;;;;;3.35;2.67;;;23.40;41.80;;;;;;4959497;28;20059;-66
2023/06/14 09:18:14;;;;;;;3.40;2.38;;;23.40;41.40;;;;;;4957971;28;20558;-64
2023/06/14 09:20:40;;;;;;;2.75;2.50;;;23.40;42.00;;;;;;4959519;28;20035;-62
2023/06/14 09:23:07;;;;;;;4.85;2.55;;;23.40;41.70;;;;;;4958786;28;20434;-64
2023/06/14 09:25:41;;;;;;;2.67;2.47;;;23.60;42.00;;;;;;4958786;28;20106;-64
2023/06/14 09:28:08;;;;;;;2.92;2.50;;;23.60;41.10;;;;;;4958725;28;20058;-63
2023/06/14 09:30:34;;;;;;;3.05;2.80;;;23.70;41.60;;;;;;4957412;28;20032;-65
2023/06/14 09:32:59;;;;;;;5.93;2.30;;;23.80;41.00;;;;;;4959383;28;20035;-64
2023/06/14 09:35:25;;;;;;;3.08;2.30;;;23.80;41.70;;;;;;4958636;28;20038;-64
2023/06/14 09:37:50;;;;;;;4.30;2.50;;;24.00;41.80;;;;;;4959087;28;20121;-65
2023/06/14 09:40:20;;;;;;;5.00;2.35;;;24.10;41.40;;;;;;4957985;28;20435;-64
2023/06/14 09:42:46;;;;;;;2.45;2.25;;;24.10;41.10;;;;;;4957380;28;20035;-64
2023/06/14 09:45:13;;;;;;;2.92;2.10;;;24.30;40.40;;;;;;4958429;28;20050;-65
2023/06/14 09:47:39;;;;;;;3.60;2.50;;;24.40;40.40;;;;;;4959544;28;20118;-65
2023/06/14 09:50:06;;;;;;;3.30;2.60;;;24.50;40.00;;;;;;4961264;28;20121;-64
2023/06/14 09:52:32;;;;;;;2.80;2.20;;;24.60;39.10;;;;;;4961821;28;20081;-64
2023/06/14 09:54:59;;;;;;;41.15;3.53;;;24.70;38.70;;;;;;4962922;28;20066;-64
2023/06/14 09:57:26;;;;;;;12.07;2.75;;;24.70;39.00;;;;;;4961550;28;20379;-64
2023/06/14 10:00:00;;;;;;;4.18;2.45;;;24.70;38.70;;;;;;4962746;28;20031;-65
2023/06/14 10:02:28;;;;;;;2.60;2.40;;;24.80;38.30;;;;;;4961251;28;20113;-64
2023/06/14 10:05:11;;;;;;;4.78;2.20;;;24.80;39.00;;;;;;4962754;28;20042;-64
2023/06/14 10:07:41;;;;;;;5.20;2.38;;;24.90;38.20;;;;;;4960973;28;20039;-64
2023/06/14 10:10:07;;;;;;;2.63;2.20;;;25.00;38.50;;;;;;4962112;28;20038;-63
2023/06/14 10:12:33;;;;;;;2.67;2.00;;;25.10;38.60;;;;;;4963135;28;20054;-64
2023/06/14 10:15:01;;;;;;;2.40;1.92;;;25.20;38.50;;;;;;4960219;28;20042;-64
2023/06/14 10:17:45;;;;;;;2.42;2.13;;;25.30;38.10;;;;;;4961359;28;20035;-64
2023/06/14 10:20:24;;;;;;;4.80;2.17;;;25.50;36.90;;;;;;4962087;28;20466;-63
2023/06/14 10:22:58;;;;;;;2.80;2.22;;;25.50;37.50;;;;;;4960791;28;20038;-64
2023/06/14 10:25:28;;;;;;;2.53;2.33;;;25.60;36.80;;;;;;4960921;28;20729;-65
2023/06/14 10:28:23;;;;;;;3.47;2.35;;;25.70;36.50;;;;;;4961238;28;20143;-64
2023/06/14 10:31:07;;;;;;;4.20;2.45;;;25.70;34.80;;;;;;4960239;28;20451;-64
2023/06/14 10:33:56;;;;;;;4.40;2.15;;;25.70;35.90;;;;;;4960511;28;20082;-64
2023/06/14 10:36:22;;;;;;;4.38;2.30;;;25.70;35.90;;;;;;4952750;28;20058;-64
2023/06/14 10:39:06;;;;;;;2.45;2.25;;;25.70;36.70;;;;;;4960890;28;20043;-64
2023/06/14 10:41:35;;;;;;;2.60;2.40;;;25.70;36.40;;;;;;4961411;28;20462;-65
2023/06/14 10:44:13;;;;;;;2.97;2.50;;;25.80;36.10;;;;;;4960669;28;20042;-65
2023/06/14 10:46:49;;;;;;;3.03;2.25;;;25.90;35.50;;;;;;4960861;28;20503;-64
2023/06/14 10:49:41;;;;;;;5.65;2.60;;;25.90;35.30;;;;;;4961253;28;20122;-64
2023/06/14 10:52:16;;;;;;;2.80;2.60;;;26.00;34.80;;;;;;4960780;28;20042;-64
2023/06/14 10:55:12;;;;;;;4.03;2.65;;;26.00;34.90;;;;;;4960168;28;20034;-64
2023/06/14 10:57:43;;;;;;;4.88;2.30;;;26.00;33.80;;;;;;4962157;28;20042;-64
2023/06/14 11:00:15;;;;;;;2.80;2.05;;;25.90;35.00;;;;;;4961727;28;20418;-64
2023/06/14 11:03:05;;;;;;;2.28;2.08;;;25.90;35.30;;;;;;4962270;28;20947;-64
2023/06/14 11:05:33;;;;;;;2.40;2.20;;;25.80;34.70;;;;;;4961229;28;20134;-64
2023/06/14 11:08:38;;;;;;;2.80;2.33;;;26.00;35.60;;;;;;4962133;28;20454;-64
2023/06/14 11:11:07;;;;;;;2.53;2.28;;;26.10;34.90;;;;;;4962291;28;20395;-64
2023/06/14 11:13:33;;;;;;;5.15;2.78;;;26.10;35.00;;;;;;4960643;28;20138;-63
2023/06/14 11:15:59;;;;;;;3.60;2.80;;;26.20;35.10;;;;;;4961499;28;20122;-64
2023/06/14 11:18:27;;;;;;;2.90;2.55;;;26.10;34.40;;;;;;4961026;28;20406;-64
2023/06/14 11:20:53;;;;;;;2.38;2.17;;;26.10;34.30;;;;;;4961119;28;20541;-64
2023/06/14 11:23:18;;;;;;;2.63;2.42;;;26.10;34.50;;;;;;4961086;28;20059;-62
2023/06/14 11:25:50;;;;;;;2.65;2.45;;;26.10;34.60;;;;;;4960802;28;20392;-65
2023/06/14 11:28:15;;;;;;;5.25;2.50;;;26.10;33.40;;;;;;4959048;28;20066;-64
2023/06/14 11:30:41;;;;;;;2.70;2.50;;;26.10;34.10;;;;;;4958466;28;20059;-64
2023/06/14 11:33:11;;;;;;;2.63;2.40;;;26.10;33.90;;;;;;4959235;28;20554;-63
2023/06/14 11:35:36;;;;;;;5.93;2.50;;;26.00;34.40;;;;;;4959845;28;20035;-64
2023/06/14 11:38:02;;;;;;;1.98;1.88;;;26.00;34.50;;;;;;4960441;28;20043;-64
2023/06/14 11:40:28;;;;;;;2.78;2.50;;;26.10;34.90;;;;;;4958595;28;20070;-63
2023/06/14 11:43:02;;;;;;;3.13;2.53;;;26.10;34.00;;;;;;4960277;28;20042;-64
2023/06/14 11:45:29;;;;;;;3.08;2.60;;;26.20;33.70;;;;;;4960328;28;20506;-64
2023/06/14 11:47:58;;;;;;;4.85;2.33;;;26.20;33.80;;;;;;4960976;28;20063;-64
2023/06/14 11:50:24;;;;;;;3.95;2.20;;;26.20;33.60;;;;;;4959931;28;20035;-64
2023/06/14 11:52:59;;;;;;;2.72;2.40;;;26.20;33.70;;;;;;4958869;28;20030;-64
2023/06/14 11:55:26;;;;;;;2.35;2.15;;;26.20;33.40;;;;;;4960100;28;20031;-64
2023/06/14 11:57:56;;;;;;;4.68;2.20;;;26.30;33.60;;;;;;4958729;28;20067;-63
2023/06/14 12:00:25;;;;;;;2.63;2.42;;;26.30;34.00;;;;;;4960257;28;20498;-64
2023/06/14 12:02:55;;;;;;;3.53;2.33;;;26.40;33.30;;;;;;4957544;28;20102;-64
2023/06/14 12:05:22;;;;;;;2.50;2.30;;;26.50;33.00;;;;;;4959368;28;20039;-63
2023/06/14 12:07:48;;;;;;;5.45;2.70;;;26.60;32.90;;;;;;4959627;28;20046;-64
2023/06/14 12:10:15;;;;;;;2.35;2.15;;;26.60;32.00;;;;;;4958719;28;20058;-64
2023/06/14 12:12:41;;;;;;;4.72;2.30;;;26.60;31.80;;;;;;4959746;28;20324;-64
2023/06/14 12:15:09;;;;;;;2.47;2.17;;;26.50;32.80;;;;;;4959372;28;20480;-64
2023/06/14 12:17:36;;;;;;;2.60;2.40;;;26.50;32.90;;;;;;4958903;28;20046;-64
2023/06/14 12:20:21;;;;;;;2.47;2.28;;;26.50;31.40;;;;;;4959463;28;20050;-64
2023/06/14 12:22:58;;;;;;;2.35;2.13;;;26.50;31.10;;;;;;4958727;28;20428;-64
2023/06/14 12:25:36;;;;;;;2.45;2.25;;;26.40;31.90;;;;;;4958091;28;20089;-64
2023/06/14 12:28:06;;;;;;;2.85;2.38;;;26.30;31.50;;;;;;4959286;28;20503;-64
2023/06/14 12:30:32;;;;;;;4.70;2.10;;;26.20;32.30;;;;;;4958458;28;20039;-63
2023/06/14 12:32:58;;;;;;;3.92;2.15;;;26.20;32.80;;;;;;4958427;28;20055;-64
2023/06/14 12:35:24;;;;;;;3.80;2.45;;;26.20;33.10;;;;;;4960122;28;20047;-64
2023/06/14 12:37:49;;;;;;;2.42;2.22;;;26.20;32.30;;;;;;4959648;28;20054;-64
2023/06/14 12:40:15;;;;;;;3.00;2.20;;;26.30;32.60;;;;;;4958865;28;20031;-64
2023/06/14 12:42:41;;;;;;;2.75;2.05;;;26.30;32.10;;;;;;4958362;28;20058;-65
2023/06/14 12:45:07;;;;;;;2.40;2.20;;;26.30;32.90;;;;;;4959215;28;20046;-63
2023/06/14 12:47:33;;;;;;;3.38;2.55;;;26.20;33.00;;;;;;4958919;28;20042;-64